Time;durP1;ratioP1;P1;durP2;ratioP2;P2;SDS_P1;SDS_P2;PMS_P1;PMS_P2;Temp;Humidity;BMP_temperature;BMP_pressure;BME280_temperature;BME280_humidity;BME280_pressure;Samples;Min_cycle;Max_cycle;Signal;HPM_P1;HPM_P2
2021/12/24 00:01:43;;;;;;;1.95;1.65;;;;;;;12.85;47.88;94755.63;5027512;28;20111;-63
2021/12/24 00:04:09;;;;;;;2.15;1.67;;;;;;;12.31;48.85;94721.66;5028887;28;20026;-64
2021/12/24 00:06:36;;;;;;;1.60;1.10;;;;;;;12.97;47.41;94736.97;5028995;28;20029;-63
2021/12/24 00:09:03;;;;;;;3.00;1.48;;;;;;;12.44;49.12;94733.97;5028244;28;20060;-64
2021/12/24 00:11:30;;;;;;;4.32;1.63;;;;;;;12.25;49.16;94714.97;5011312;28;20025;-63
2021/12/24 00:13:55;;;;;;;2.50;1.20;;;;;;;12.25;49.30;94727.50;5027092;28;20065;-64
2021/12/24 00:16:25;;;;;;;2.42;1.42;;;;;;;11.92;50.50;94726.28;5028702;28;20060;-63
2021/12/24 00:19:01;;;;;;;2.20;1.63;;;;;;;12.54;49.11;94724.00;5028446;28;20033;-63
2021/12/24 00:37:21;;;;;;;2.13;1.42;;;;;;;11.44;50.58;94614.78;5032444;28;20113;-64
2021/12/24 00:39:55;;;;;;;2.53;1.40;;;;;;;12.17;49.81;94681.91;5031272;28;20029;-65
2021/12/24 00:42:21;;;;;;;1.45;1.20;;;;;;;12.25;50.41;94700.84;5031730;28;20025;-63
2021/12/24 00:44:46;;;;;;;1.70;1.10;;;;;;;11.26;52.62;94671.84;5030420;28;20457;-67
2021/12/24 00:47:11;;;;;;;3.15;1.35;;;;;;;11.67;50.60;94633.94;5031968;28;20021;-65
2021/12/24 00:49:37;;;;;;;3.72;1.40;;;;;;;11.69;50.87;94629.81;5031242;28;20386;-64
2021/12/24 00:57:16;;;;;;;2.25;1.27;;;;;;;11.44;52.37;94650.16;5032124;28;20075;-65
2021/12/24 00:59:41;;;;;;;6.63;1.65;;;;;;;11.74;51.64;94639.53;5030498;28;20057;-65
2021/12/24 01:02:06;;;;;;;2.00;1.55;;;;;;;11.69;51.81;94645.81;5031510;28;20414;-65
2021/12/24 01:04:32;;;;;;;1.67;1.45;;;;;;;11.11;51.53;94543.53;5031720;28;20032;-64
2021/12/24 01:06:57;;;;;;;2.63;1.50;;;;;;;11.67;52.43;94664.00;5031418;28;20018;-65
2021/12/24 01:09:23;;;;;;;3.05;1.27;;;;;;;11.38;51.79;94603.53;5031044;28;20056;-64
2021/12/24 01:11:48;;;;;;;1.88;1.30;;;;;;;11.49;50.43;94536.56;5031350;28;20024;-64
2021/12/24 01:14:14;;;;;;;1.88;1.38;;;;;;;11.75;50.86;94605.66;5029616;28;20479;-64
2021/12/24 01:16:51;;;;;;;3.10;1.65;;;;;;;12.17;50.21;94604.56;5013148;28;20021;-64
2021/12/24 01:19:21;;;;;;;2.58;1.30;;;;;;;12.16;49.99;94600.34;5030485;28;20816;-64
2021/12/24 01:24:40;;;;;;;3.90;1.42;;;;;;;12.27;50.53;94672.72;5030617;28;20040;-65
2021/12/24 01:27:22;;;;;;;1.90;1.52;;;;;;;12.48;49.85;94644.16;5030274;28;20036;-64
2021/12/24 01:30:07;;;;;;;2.08;1.40;;;;;;;11.86;51.39;94628.97;5030084;28;20034;-64
2021/12/24 01:38:15;;;;;;;2.22;1.40;;;;;;;12.51;50.04;94655.31;5030078;28;20500;-64
2021/12/24 01:43:21;;;;;;;1.85;1.13;;;;;;;13.71;47.94;94679.16;5029540;28;20067;-65
2021/12/24 01:45:50;;;;;;;4.20;1.35;;;;;;;12.73;49.18;94606.88;5027154;28;20565;-63
2021/12/24 01:48:15;;;;;;;3.95;1.40;;;;;;;12.91;48.91;94652.88;5029405;28;20434;-63
2021/12/24 01:50:45;;;;;;;2.15;1.33;;;;;;;12.95;49.57;94659.13;5029672;28;20025;-64
2021/12/24 01:53:12;;;;;;;2.60;1.17;;;;;;;12.93;49.69;94667.44;5030005;28;20049;-63
2021/12/24 01:55:38;;;;;;;1.65;1.33;;;;;;;13.17;48.56;94633.91;5029669;28;20075;-63
2021/12/24 01:58:04;;;;;;;2.17;1.40;;;;;;;13.00;48.59;94635.66;5029018;28;20034;-64
2021/12/24 02:00:36;;;;;;;3.08;1.48;;;;;;;12.63;49.60;94594.75;5009958;28;20157;-64
2021/12/24 02:03:01;;;;;;;;;;;;;;;13.28;48.70;94651.06;5029945;28;20026;-62
2021/12/24 02:05:27;;;;;;;1.50;1.20;;;;;;;13.05;49.19;94650.69;5029593;28;19913;-64
2021/12/24 02:07:52;;;;;;;1.17;1.08;;;;;;;13.36;48.91;94652.06;5029598;28;20017;-65
2021/12/24 02:10:19;;;;;;;2.53;1.25;;;;;;;12.77;48.41;94551.75;5028890;28;20463;-64
2021/12/24 02:12:46;;;;;;;1.48;1.25;;;;;;;13.39;48.52;94646.84;5029117;28;20048;-64
2021/12/24 02:15:24;;;;;;;2.13;1.52;;;;;;;12.49;50.36;94620.97;5028179;28;20079;-64
2021/12/24 02:18:22;;;;;;;3.05;1.20;;;;;;;12.88;49.88;94648.97;5029335;28;20026;-64
2021/12/24 02:29:04;;;;;;;1.98;1.30;;;;;;;12.85;49.64;94598.94;5029004;28;20526;-63
2021/12/24 02:31:29;;;;;;;1.25;0.90;;;;;;;12.55;49.92;94555.63;5028700;28;20029;-65
2021/12/24 02:33:55;;;;;;;6.75;1.52;;;;;;;12.68;49.85;94597.19;5029794;28;20021;-64
2021/12/24 02:36:21;;;;;;;2.33;1.08;;;;;;;13.01;49.51;94609.75;5030033;28;20030;-64
2021/12/24 02:38:47;;;;;;;1.20;1.05;;;;;;;12.70;50.17;94591.56;5029697;28;20026;-64
2021/12/24 02:41:15;;;;;;;1.48;1.30;;;;;;;12.62;50.14;94581.75;5029346;28;20017;-64
2021/12/24 02:43:42;;;;;;;0.95;0.82;;;;;;;12.04;51.27;94562.22;5028893;28;20460;-64
2021/12/24 02:46:12;;;;;;;2.60;1.05;;;;;;;12.77;50.02;94605.13;5028369;28;20661;-65
2021/12/24 02:53:56;;;;;;;3.15;1.65;;;;;;;11.88;50.62;94487.41;5011924;28;20369;-64
2021/12/24 02:54:18;;;;;;;2.28;1.33;;;;;;;12.64;50.51;94591.00;5029879;28;20084;-64
2021/12/24 02:56:58;;;;;;;2.05;1.58;;;;;;;13.06;48.94;94563.38;5029818;28;20411;-63
2021/12/24 02:59:29;;;;;;;3.05;1.42;;;;;;;12.89;49.38;94549.09;5010784;28;20037;-64
2021/12/24 03:01:56;;;;;;;1.85;1.20;;;;;;;13.14;49.06;94567.81;5028029;28;20055;-65
2021/12/24 03:04:21;;;;;;;1.77;1.40;;;;;;;13.29;48.72;94561.81;5029544;28;20097;-64
2021/12/24 03:06:50;;;;;;;2.47;1.10;;;;;;;12.91;49.15;94528.19;5029437;28;20144;-64
2021/12/24 03:09:17;;;;;;;3.08;1.20;;;;;;;13.13;48.70;94526.97;5011339;28;20032;-64
2021/12/24 03:11:45;;;;;;;1.73;1.20;;;;;;;12.35;49.25;94469.22;5029519;28;20021;-64
2021/12/24 03:14:11;;;;;;;2.50;1.30;;;;;;;13.22;48.65;94537.56;5011317;28;20657;-64
2021/12/24 03:16:38;;;;;;;1.40;1.00;;;;;;;12.74;48.55;94472.34;5028209;28;20025;-64
2021/12/24 03:19:05;;;;;;;2.15;1.30;;;;;;;13.57;47.54;94534.44;5002818;28;20026;-64
2021/12/24 03:22:29;;;;;;;2.33;1.13;;;;;;;12.94;47.50;94457.34;5010720;28;20030;-65
2021/12/24 03:26:45;;;;;;;1.80;1.27;;;;;;;13.10;47.94;94506.25;5029627;28;20105;-65
2021/12/24 03:29:12;;;;;;;2.55;1.02;;;;;;;12.90;48.52;94504.53;5028359;28;20038;-65
2021/12/24 03:31:39;;;;;;;1.13;1.02;;;;;;;12.76;48.60;94518.19;5027927;28;20076;-64
2021/12/24 03:34:06;;;;;;;1.50;1.00;;;;;;;13.11;47.78;94483.03;5003332;28;20468;-64
2021/12/24 03:36:31;;;;;;;3.25;1.35;;;;;;;12.81;47.98;94485.94;5029327;28;20068;-64
2021/12/24 03:38:57;;;;;;;2.05;1.30;;;;;;;13.08;47.56;94478.34;5028476;28;20654;-65
2021/12/24 03:41:24;;;;;;;2.25;1.48;;;;;;;13.06;47.29;94460.00;5011531;28;20095;-64
2021/12/24 03:43:49;;;;;;;1.92;1.20;;;;;;;12.84;47.61;94455.88;5028544;28;20056;-64
2021/12/24 03:46:18;;;;;;;1.92;1.20;;;;;;;13.10;47.83;94508.16;5027828;28;20046;-64
2021/12/24 03:49:00;;;;;;;3.40;1.10;;;;;;;12.62;48.29;94486.47;5028631;28;20021;-64
2021/12/24 03:56:47;;;;;;;1.33;0.80;;;;;;;12.04;48.65;94419.06;5032677;28;20506;-64
2021/12/24 03:59:13;;;;;;;1.48;1.00;;;;;;;13.16;46.82;94480.13;5013745;28;20029;-64
2021/12/24 04:01:39;;;;;;;3.65;1.10;;;;;;;12.84;47.65;94481.81;5012549;28;20530;-63
2021/12/24 04:04:05;;;;;;;2.55;1.30;;;;;;;12.81;47.26;94456.56;5014692;28;20025;-63
2021/12/24 04:06:32;;;;;;;3.13;1.10;;;;;;;12.96;47.50;94509.28;5032635;28;20029;-65
2021/12/24 04:08:58;;;;;;;1.00;0.90;;;;;;;12.76;47.48;94483.47;5014265;28;20463;-62
2021/12/24 04:11:23;;;;;;;1.00;0.93;;;;;;;13.26;46.46;94482.38;5032594;28;20033;-63
2021/12/24 04:13:48;;;;;;;3.60;1.35;;;;;;;13.61;46.04;94516.56;5032042;28;20021;-62
2021/12/24 04:16:14;;;;;;;1.65;1.13;;;;;;;13.15;47.26;94492.69;5031074;28;20021;-62
2021/12/24 04:26:59;;;;;;;0.88;0.85;;;;;;;12.18;47.30;94387.53;5032624;28;20068;-64
2021/12/24 04:29:26;;;;;;;1.63;1.08;;;;;;;13.09;46.85;94477.25;5030948;28;20516;-64
2021/12/24 04:32:08;;;;;;;1.63;0.93;;;;;;;13.36;45.46;94451.72;5030612;28;20049;-63
2021/12/24 04:34:35;;;;;;;1.42;0.80;;;;;;;13.16;46.19;94504.19;5032027;28;20033;-62
2021/12/24 05:03:45;;;;;;;1.33;0.85;;;;;;;12.17;43.94;94505.16;5031448;28;20040;-64
2021/12/24 05:06:51;;;;;;;0.82;0.80;;;;;;;11.32;44.88;94455.72;5031498;28;20057;-64
2021/12/24 05:09:09;;;;;;;0.75;0.70;;;;;;;11.80;44.55;94506.88;5025732;28;20034;-64
2021/12/24 05:11:36;;;;;;;2.63;0.60;;;;;;;11.43;43.61;94400.19;5031444;28;20483;-64
2021/12/24 05:14:02;;;;;;;1.02;0.80;;;;;;;11.89;44.02;94511.06;5012958;28;20033;-64
2021/12/24 05:16:41;;;;;;;0.93;0.90;;;;;;;11.88;42.79;94415.47;5029955;28;20025;-64
2021/12/24 05:21:52;;;;;;;1.52;0.77;;;;;;;12.54;42.70;94495.38;5031240;28;20687;-64
2021/12/24 05:24:21;;;;;;;1.08;0.70;;;;;;;12.40;42.81;94521.56;5031135;28;20033;-64
2021/12/24 05:26:53;;;;;;;1.20;0.60;;;;;;;12.22;43.03;94505.72;5030964;28;20689;-64
2021/12/24 05:29:18;;;;;;;1.88;0.70;;;;;;;12.77;41.48;94473.59;5030101;28;20042;-64
2021/12/24 05:31:46;;;;;;;1.05;0.70;;;;;;;11.97;43.29;94475.53;5028267;28;20041;-63
2021/12/24 05:34:14;;;;;;;1.33;0.80;;;;;;;12.55;42.56;94501.47;5030684;28;20064;-64
2021/12/24 05:36:39;;;;;;;1.67;0.70;;;;;;;11.61;42.72;94417.53;5030897;28;20060;-64
2021/12/24 05:39:05;;;;;;;0.82;0.82;;;;;;;12.11;42.43;94475.25;5030257;28;20064;-64
2021/12/24 05:41:30;;;;;;;1.40;0.60;;;;;;;12.12;42.19;94430.72;5030830;28;20441;-64
2021/12/24 05:43:57;;;;;;;1.10;0.70;;;;;;;11.99;42.56;94469.13;5012713;28;20567;-64
2021/12/24 05:46:23;;;;;;;1.17;0.82;;;;;;;12.76;41.74;94491.50;5029479;28;20021;-64
2021/12/24 05:48:48;;;;;;;0.77;0.70;;;;;;;12.88;41.69;94512.84;5012330;28;20036;-65
2021/12/24 05:51:14;;;;;;;0.80;0.57;;;;;;;13.16;40.87;94506.84;5011888;28;20060;-64
2021/12/24 05:53:39;;;;;;;1.80;0.80;;;;;;;12.76;40.70;94446.13;5012990;28;20037;-64
2021/12/24 05:56:05;;;;;;;1.42;0.70;;;;;;;12.61;41.18;94458.25;5030641;28;20033;-65
2021/12/24 05:58:30;;;;;;;1.45;0.70;;;;;;;11.88;42.26;94439.44;5012541;28;20017;-63
2021/12/24 06:00:56;;;;;;;2.83;1.02;;;;;;;12.63;42.12;94505.91;5028401;28;20029;-62
2021/12/24 06:03:22;;;;;;;1.65;0.80;;;;;;;13.05;40.56;94482.50;5012415;28;20033;-64
2021/12/24 06:05:48;;;;;;;0.98;0.77;;;;;;;12.58;42.10;94504.25;5012698;28;20331;-64
2021/12/24 06:08:13;;;;;;;0.77;0.77;;;;;;;12.53;42.04;94515.13;5030088;28;20030;-64
2021/12/24 06:10:39;;;;;;;4.10;1.05;;;;;;;11.33;42.79;94382.72;5030119;28;20025;-64
2021/12/24 06:13:05;;;;;;;1.63;0.90;;;;;;;12.06;42.01;94400.06;5030321;28;20044;-63
2021/12/24 06:15:41;;;;;;;0.60;0.60;;;;;;;11.87;43.54;94505.25;5029559;28;20030;-63
2021/12/24 06:18:12;;;;;;;2.15;0.90;;;;;;;12.87;41.84;94513.97;5022884;28;20032;-63
2021/12/24 06:20:41;;;;;;;1.30;1.00;;;;;;;12.69;41.92;94517.94;5029581;28;20026;-65
2021/12/24 06:23:08;;;;;;;1.25;0.88;;;;;;;12.12;43.70;94526.69;5074369;23;20102;-63
2021/12/24 06:25:34;;;;;;;2.50;1.23;;;;;;;12.31;43.33;94502.97;5043022;28;20058;-65
2021/12/24 06:28:00;;;;;;;2.28;1.00;;;;;;;12.10;43.89;94529.69;5051387;28;20028;-65
2021/12/24 06:30:29;;;;;;;1.88;0.90;;;;;;;11.78;44.83;94501.88;5061739;28;20644;-65
2021/12/24 06:32:58;;;;;;;1.65;0.82;;;;;;;12.13;44.53;94528.25;5065202;28;20029;-66
2021/12/24 06:35:24;;;;;;;1.35;0.85;;;;;;;12.03;44.02;94510.00;5046367;28;20039;-65
2021/12/24 06:37:54;;;;;;;1.80;1.08;;;;;;;12.17;44.16;94515.81;5052045;28;20035;-65
2021/12/24 06:40:19;;;;;;;0.95;0.95;;;;;;;12.34;44.07;94523.66;5050714;28;20024;-65
2021/12/24 06:42:45;;;;;;;1.65;0.88;;;;;;;12.31;44.00;94523.53;5051917;28;20025;-65
2021/12/24 06:45:10;;;;;;;1.40;1.02;;;;;;;12.43;43.52;94512.88;5044693;28;20150;-64
2021/12/24 06:47:36;;;;;;;1.10;0.93;;;;;;;12.04;45.03;94527.56;5067288;28;20029;-65
2021/12/24 06:50:02;;;;;;;1.10;1.00;;;;;;;12.47;43.89;94525.25;5060142;28;20095;-65
2021/12/24 06:52:27;;;;;;;0.80;0.80;;;;;;;12.60;43.54;94507.38;5069814;28;20021;-65
2021/12/24 06:54:52;;;;;;;2.78;0.98;;;;;;;12.11;44.52;94515.25;5069742;28;20024;-65
2021/12/24 06:57:19;;;;;;;0.73;0.70;;;;;;;12.20;44.90;94533.84;5069748;28;20016;-63
2021/12/24 06:59:46;;;;;;;1.15;0.77;;;;;;;12.72;43.76;94543.97;5062443;28;20025;-63
2021/12/24 07:02:11;;;;;;;2.35;0.88;;;;;;;12.72;44.22;94538.63;5042181;28;20373;-63
2021/12/24 07:04:37;;;;;;;2.03;1.20;;;;;;;12.41;44.33;94515.13;5069528;28;20023;-64
2021/12/24 07:07:02;;;;;;;1.33;0.90;;;;;;;12.16;45.12;94507.03;5051645;28;20028;-66
2021/12/24 07:09:28;;;;;;;1.17;0.98;;;;;;;12.43;44.59;94515.56;5069069;28;20055;-64
2021/12/24 07:11:53;;;;;;;1.73;1.15;;;;;;;12.09;45.19;94514.81;5051300;28;20059;-64
2021/12/24 07:14:19;;;;;;;1.50;1.10;;;;;;;12.55;44.60;94528.94;5048193;28;20059;-65
2021/12/24 07:16:44;;;;;;;2.50;1.30;;;;;;;12.11;44.97;94511.81;5064274;28;20090;-64
2021/12/24 07:19:10;;;;;;;2.20;1.02;;;;;;;12.29;45.85;94531.88;5060088;28;20082;-63
2021/12/24 07:21:35;;;;;;;2.20;1.17;;;;;;;11.73;46.27;94523.41;5069151;28;20036;-63
2021/12/24 07:24:03;;;;;;;1.50;1.00;;;;;;;12.95;46.77;94536.31;5069006;28;20086;-61
2021/12/24 07:26:29;;;;;;;0.95;0.95;;;;;;;13.45;44.31;94541.31;5069150;28;20024;-61
2021/12/24 07:28:54;;;;;;;1.10;1.00;;;;;;;12.94;44.61;94521.41;5068761;28;20028;-64
2021/12/24 07:31:20;;;;;;;1.38;1.00;;;;;;;12.85;44.33;94510.84;5064890;28;20090;-64
2021/12/24 07:33:46;;;;;;;1.40;1.00;;;;;;;12.68;45.38;94532.38;5063419;28;20426;-64
2021/12/24 07:36:11;;;;;;;1.58;1.02;;;;;;;13.33;43.41;94521.88;5073021;28;20039;-62
2021/12/24 07:38:37;;;;;;;1.95;1.30;;;;;;;13.43;43.94;94535.53;5072690;28;20031;-61
2021/12/24 07:41:04;;;;;;;1.52;1.10;;;;;;;13.07;44.33;94506.19;5072855;28;20025;-61
2021/12/24 07:43:30;;;;;;;1.65;1.30;;;;;;;12.90;44.59;94512.53;5072778;28;20037;-65
2021/12/24 07:45:55;;;;;;;1.45;0.90;;;;;;;12.58;45.78;94530.16;5049275;28;20570;-65
2021/12/24 07:48:28;;;;;;;1.27;1.02;;;;;;;12.23;46.95;94523.31;5065271;28;20021;-64
2021/12/24 07:53:19;;;;;;;1.10;1.00;;;;;;;11.79;48.54;94519.44;5072771;28;20031;-65
2021/12/24 07:55:45;;;;;;;1.70;1.00;;;;;;;11.37;49.02;94527.41;5072917;28;20029;-65
2021/12/24 07:58:14;;;;;;;1.38;1.10;;;;;;;11.99;47.79;94544.53;5072257;28;20052;-65
2021/12/24 08:00:42;;;;;;;1.20;1.10;;;;;;;11.44;48.43;94479.72;5066352;28;20035;-66
2021/12/24 08:03:08;;;;;;;1.27;1.05;;;;;;;11.84;48.25;94508.59;5067060;28;20613;-66
2021/12/24 08:05:38;;;;;;;1.77;1.20;;;;;;;11.48;49.67;94521.72;5068678;28;20043;-64
2021/12/24 08:08:04;;;;;;;0.77;0.70;;;;;;;10.89;50.36;94517.97;5072292;28;20497;-63
2021/12/24 08:10:34;;;;;;;1.23;1.13;;;;;;;11.23;51.06;94542.06;5072255;28;20052;-73
2021/12/24 08:13:00;;;;;;;1.70;1.30;;;;;;;11.07;51.06;94515.22;5072778;28;20021;-63
2021/12/24 08:15:27;;;;;;;1.27;1.15;;;;;;;11.27;51.94;94551.75;5062142;28;20021;-62
2021/12/24 08:17:52;;;;;;;1.27;0.95;;;;;;;10.88;52.04;94463.19;5049843;28;20028;-67
2021/12/24 08:20:22;;;;;;;1.52;1.10;;;;;;;11.08;52.54;94501.59;5065241;28;20724;-64
2021/12/24 08:22:52;;;;;;;1.38;1.27;;;;;;;11.13;52.08;94541.31;5071819;28;20035;-65
2021/12/24 08:25:18;;;;;;;1.42;1.30;;;;;;;11.24;53.27;94551.59;5072079;28;20425;-65
2021/12/24 08:27:43;;;;;;;1.27;1.17;;;;;;;10.66;54.02;94503.38;5071848;28;20035;-65
2021/12/24 08:30:09;;;;;;;1.73;1.40;;;;;;;11.11;53.02;94516.94;5049431;28;20069;-62
2021/12/24 08:32:38;;;;;;;1.45;1.00;;;;;;;12.03;49.99;94524.13;5069527;28;20466;-71
2021/12/24 08:35:06;;;;;;;2.25;0.98;;;;;;;11.66;50.91;94544.44;5055641;28;20195;-64
2021/12/24 08:37:31;;;;;;;2.05;1.25;;;;;;;11.82;51.34;94557.97;5072042;28;20613;-63
2021/12/24 08:39:57;;;;;;;1.85;1.23;;;;;;;12.15;49.97;94561.47;5071329;28;20044;-63
2021/12/24 08:42:22;;;;;;;1.00;0.93;;;;;;;11.93;50.00;94522.63;5071255;28;20218;-64
2021/12/24 08:44:47;;;;;;;2.67;1.33;;;;;;;12.23;50.24;94570.50;5070528;28;20111;-64
2021/12/24 08:47:13;;;;;;;1.05;1.00;;;;;;;11.83;50.58;94524.91;5069139;28;20541;-63
2021/12/24 08:49:39;;;;;;;2.78;1.30;;;;;;;11.33;51.99;94526.50;5062505;28;20493;-64
2021/12/24 08:52:04;;;;;;;1.25;0.80;;;;;;;11.31;51.64;94519.91;5071715;28;20104;-64
2021/12/24 08:54:30;;;;;;;1.95;1.17;;;;;;;12.19;50.46;94551.72;5071632;28;20020;-63
2021/12/24 08:56:56;;;;;;;1.15;1.00;;;;;;;11.75;50.50;94534.50;5053530;28;20504;-64
2021/12/24 08:59:23;;;;;;;1.92;1.40;;;;;;;11.49;51.28;94539.25;5070875;28;20016;-66
2021/12/24 09:01:52;;;;;;;2.33;0.98;;;;;;;11.78;50.72;94528.53;5048178;28;20029;-64
2021/12/24 09:04:17;;;;;;;2.10;1.10;;;;;;;11.85;50.86;94550.13;5063130;28;20107;-66
2021/12/24 09:06:43;;;;;;;1.30;1.20;;;;;;;11.46;52.41;94530.00;5071389;28;20107;-64
2021/12/24 09:09:10;;;;;;;2.42;1.20;;;;;;;11.60;52.13;94569.72;5070689;28;20054;-68
2021/12/24 09:11:38;;;;;;;2.78;1.20;;;;;;;11.65;51.74;94548.22;5071260;28;20024;-66
2021/12/24 09:14:04;;;;;;;1.65;1.17;;;;;;;11.80;51.54;94550.28;5071468;28;20031;-67
2021/12/24 09:16:32;;;;;;;1.60;1.20;;;;;;;11.54;51.74;94565.69;5068602;28;20036;-67
2021/12/24 09:19:03;;;;;;;2.15;1.10;;;;;;;10.89;52.87;94469.28;5064844;28;20376;-65
2021/12/24 09:21:28;;;;;;;1.58;1.05;;;;;;;10.55;53.93;94515.47;5066202;28;20547;-64
2021/12/24 09:23:56;;;;;;;1.75;0.45;;;;;;;10.57;55.45;94553.13;5053240;28;20036;-66
2021/12/24 09:26:28;;;;;;;1.30;0.95;;;;;;;10.36;55.28;94492.66;5071122;28;20116;-66
2021/12/24 09:28:55;;;;;;;1.13;0.93;;;;;;;10.28;56.47;94543.19;5070722;28;20028;-66
2021/12/24 09:31:20;;;;;;;1.20;1.10;;;;;;;10.59;55.66;94533.09;5055142;28;20029;-67
2021/12/24 09:33:45;;;;;;;3.25;1.15;;;;;;;10.69;55.81;94547.94;5068413;28;20021;-66
2021/12/24 09:36:11;;;;;;;2.20;1.50;;;;;;;11.18;55.79;94564.31;5045820;28;20074;-64
2021/12/24 09:38:37;;;;;;;1.48;1.38;;;;;;;10.18;58.11;94512.38;5070603;28;20020;-70
2021/12/24 09:41:02;;;;;;;2.33;1.00;;;;;;;10.14;58.45;94538.06;5070598;28;20457;-67
2021/12/24 09:43:28;;;;;;;2.03;1.00;;;;;;;9.74;58.95;94463.09;5070543;28;20054;-67
2021/12/24 09:45:53;;;;;;;1.67;1.10;;;;;;;9.94;59.32;94501.50;5056544;28;20486;-68
2021/12/24 09:48:19;;;;;;;1.52;1.38;;;;;;;10.38;59.41;94537.53;5049940;28;20516;-65
2021/12/24 09:50:45;;;;;;;1.20;1.10;;;;;;;10.33;59.76;94519.88;5061942;28;20489;-65
2021/12/24 09:53:11;;;;;;;2.10;1.25;;;;;;;10.70;58.74;94514.94;5069811;28;20486;-64
2021/12/24 09:55:37;;;;;;;2.10;1.20;;;;;;;11.23;56.89;94566.81;5070833;28;20037;-66
2021/12/24 09:58:02;;;;;;;1.30;1.20;;;;;;;10.24;58.79;94503.19;5070222;28;20107;-64
2021/12/24 10:00:28;;;;;;;1.27;1.17;;;;;;;10.47;58.33;94474.50;5063590;28;20085;-60
2021/12/24 10:02:57;;;;;;;1.85;1.50;;;;;;;11.34;56.60;94533.38;5067553;28;20039;-61
2021/12/24 10:05:31;;;;;;;2.20;1.33;;;;;;;11.34;57.71;94552.00;5061965;28;20058;-66
2021/12/24 10:08:06;;;;;;;2.92;1.35;;;;;;;11.32;58.23;94548.13;5070458;28;20033;-62
2021/12/24 10:10:32;;;;;;;2.17;1.20;;;;;;;11.13;58.36;94545.88;5070059;28;20425;-66
2021/12/24 10:13:36;;;;;;;2.45;1.30;;;;;;;11.13;58.95;94549.31;5070187;28;20036;-61
2021/12/24 10:16:06;;;;;;;1.88;1.08;;;;;;;11.08;59.51;94530.88;5062576;28;20374;-61
2021/12/24 10:18:41;;;;;;;3.00;1.40;;;;;;;10.68;61.05;94541.06;5067305;28;20024;-64
2021/12/24 10:21:16;;;;;;;2.03;1.40;;;;;;;11.15;59.91;94523.13;5054116;28;20108;-62
2021/12/24 10:23:55;;;;;;;1.75;1.63;;;;;;;10.23;61.27;94448.44;5070392;28;20048;-63
2021/12/24 10:26:26;;;;;;;2.22;1.50;;;;;;;10.90;61.56;94527.53;5070131;28;20017;-62
2021/12/24 10:28:57;;;;;;;2.72;1.65;;;;;;;11.19;60.15;94510.75;5069696;28;20021;-64
2021/12/24 10:31:29;;;;;;;2.80;1.40;;;;;;;10.63;61.25;94502.09;5062943;28;20032;-62
2021/12/24 10:34:13;;;;;;;1.65;1.48;;;;;;;10.13;61.75;94465.53;5065015;28;20032;-63
2021/12/24 10:36:52;;;;;;;1.45;1.30;;;;;;;11.33;60.29;94521.16;5066345;28;20024;-65
2021/12/24 10:39:19;;;;;;;2.03;1.75;;;;;;;11.60;59.11;94489.81;5068930;28;20017;-63
2021/12/24 10:41:47;;;;;;;1.60;1.50;;;;;;;10.87;60.62;94500.75;5069432;28;20036;-64
2021/12/24 10:44:28;;;;;;;1.55;1.45;;;;;;;11.64;59.56;94518.13;5069683;28;20070;-67
2021/12/24 10:46:57;;;;;;;2.58;1.45;;;;;;;10.11;62.29;94475.66;5062288;28;20611;-75
2021/12/24 10:50:14;;;;;;;1.85;1.10;;;;;;;10.44;60.67;94471.69;5043348;28;20049;-68
2021/12/24 10:52:29;;;;;;;1.83;1.23;;;;;;;10.63;60.62;94466.75;5018326;28;20037;-68
2021/12/24 10:55:00;;;;;;;1.73;1.40;;;;;;;11.22;60.52;94512.00;5029983;28;20036;-66
2021/12/24 10:57:37;;;;;;;2.25;1.40;;;;;;;10.96;61.35;94519.34;5029444;28;20475;-64
2021/12/24 11:00:23;;;;;;;2.05;0.98;;;;;;;11.32;60.32;94494.88;5028287;28;20025;-64
2021/12/24 11:03:00;;;;;;;2.70;1.50;;;;;;;10.67;61.16;94467.69;5046976;28;20024;-64
2021/12/24 11:05:34;;;;;;;2.15;1.38;;;;;;;11.39;59.91;94461.28;5060866;28;20022;-65
2021/12/24 11:08:04;;;;;;;2.00;1.20;;;;;;;11.49;59.53;94475.31;5069067;28;20020;-61
2021/12/24 11:10:37;;;;;;;3.88;1.65;;;;;;;11.45;59.59;94477.84;5068840;28;20021;-64
2021/12/24 11:13:09;;;;;;;2.55;1.55;;;;;;;11.80;57.96;94430.38;5069116;28;20056;-63
2021/12/24 11:15:49;;;;;;;1.98;1.60;;;;;;;12.79;56.66;94485.47;5046715;28;20039;-64
2021/12/24 11:18:30;;;;;;;1.60;1.50;;;;;;;12.25;57.70;94452.88;5056289;28;20013;-62
2021/12/24 11:21:08;;;;;;;2.42;1.80;;;;;;;12.14;58.40;94492.50;5060341;28;20403;-62
2021/12/24 11:23:36;;;;;;;1.55;1.45;;;;;;;11.42;58.82;94419.94;5068992;28;20410;-64
2021/12/24 11:26:11;;;;;;;1.75;1.65;;;;;;;11.73;58.38;94451.47;5069125;28;20020;-63
2021/12/24 11:28:38;;;;;;;1.70;1.60;;;;;;;12.02;58.19;94442.56;5050708;28;20027;-64
2021/12/24 11:31:09;;;;;;;1.60;1.50;;;;;;;11.96;58.74;94471.31;5064151;28;20103;-65
2021/12/24 11:33:36;;;;;;;2.10;1.60;;;;;;;11.74;58.76;94474.34;5048504;28;20031;-65
2021/12/24 11:36:05;;;;;;;1.75;1.38;;;;;;;11.77;59.39;94483.53;5042951;28;20060;-63
2021/12/24 11:38:36;;;;;;;1.90;1.80;;;;;;;11.73;59.25;94461.34;5068576;28;20474;-64
2021/12/24 11:41:04;;;;;;;2.47;1.80;;;;;;;11.94;58.79;94467.44;5069117;28;20033;-67
2021/12/24 11:43:36;;;;;;;2.92;1.85;;;;;;;11.75;59.52;94459.13;5068807;28;20295;-67
2021/12/24 11:46:04;;;;;;;;;;;;;;;12.10;59.15;94476.38;5065367;28;20526;-64
2021/12/24 11:48:32;;;;;;;1.95;1.75;;;;;;;12.52;57.35;94462.91;5066007;28;20267;-67
2021/12/24 11:51:28;;;;;;;2.38;1.60;;;;;;;11.88;59.00;94469.53;5060167;28;20024;-63
2021/12/24 11:53:58;;;;;;;2.42;1.40;;;;;;;12.21;58.60;94474.84;5065481;28;20174;-63
2021/12/24 11:56:24;;;;;;;3.17;1.42;;;;;;;11.77;58.85;94473.66;5068923;28;20031;-66
2021/12/24 11:58:54;;;;;;;3.60;1.80;;;;;;;12.47;57.81;94465.78;5050717;28;20025;-66
2021/12/24 12:01:22;;;;;;;2.92;1.70;;;;;;;11.90;59.27;94447.88;5045962;28;20027;-64
2021/12/24 12:03:53;;;;;;;3.30;1.67;;;;;;;12.38;58.53;94465.88;5065974;28;20433;-64
2021/12/24 12:06:22;;;;;;;1.75;1.40;;;;;;;12.07;58.78;94468.25;5048827;28;20025;-64
2021/12/24 12:08:49;;;;;;;1.42;1.30;;;;;;;11.80;59.77;94451.69;5048130;28;20079;-65
2021/12/24 12:11:14;;;;;;;2.72;1.50;;;;;;;11.75;60.02;94467.91;5048479;28;20051;-65
2021/12/24 12:13:41;;;;;;;2.03;1.48;;;;;;;12.00;58.30;94439.47;5048576;28;20531;-63
2021/12/24 12:16:12;;;;;;;2.20;1.50;;;;;;;11.53;59.27;94430.97;5052157;28;20546;-63
2021/12/24 12:19:00;;;;;;;1.50;1.40;;;;;;;12.40;58.45;94462.88;5069527;28;20103;-63
2021/12/24 12:21:37;;;;;;;1.60;1.50;;;;;;;11.87;58.74;94427.97;5044244;28;20681;-65
2021/12/24 12:26:53;;;;;;;1.38;1.27;;;;;;;11.85;58.20;94378.81;5020947;28;20436;-65
2021/12/24 12:29:41;;;;;;;1.50;1.27;;;;;;;11.87;58.51;94388.00;5100358;23;20052;-63
2021/12/24 12:32:13;;;;;;;1.88;1.20;;;;;;;12.97;55.88;94424.66;5085564;28;20050;-60
2021/12/24 12:34:38;;;;;;;1.15;1.08;;;;;;;13.33;55.34;94429.16;5090980;28;20031;-64
2021/12/24 12:37:24;;;;;;;2.92;1.20;;;;;;;11.82;58.25;94395.44;5091123;28;20093;-65
2021/12/24 12:39:53;;;;;;;2.40;1.45;;;;;;;11.00;57.60;94251.50;5090127;28;20374;-64
2021/12/24 12:42:21;;;;;;;2.58;1.40;;;;;;;11.85;55.88;94264.22;5091845;28;20101;-61
2021/12/24 12:44:53;;;;;;;2.00;1.33;;;;;;;11.66;57.13;94304.69;5092330;28;20048;-64
2021/12/24 12:47:22;;;;;;;2.65;2.10;;;;;;;12.57;57.83;94413.88;5091382;28;20030;-68
2021/12/24 12:49:48;;;;;;;3.17;1.60;;;;;;;13.20;57.00;94436.38;5091222;28;20077;-71
2021/12/24 12:52:25;;;;;;;1.90;1.30;;;;;;;13.44;55.69;94405.41;5091951;28;20025;-64
2021/12/24 12:54:56;;;;;;;1.80;1.40;;;;;;;12.94;55.89;94436.75;5091864;28;20020;-64
2021/12/24 12:57:36;;;;;;;2.00;1.42;;;;;;;12.84;57.42;94442.53;5092049;28;20029;-64
2021/12/24 13:00:07;;;;;;;1.40;1.30;;;;;;;12.84;56.89;94439.09;5091407;28;20020;-64
2021/12/24 13:05:53;;;;;;;3.25;1.50;;;;;;;13.21;56.01;94395.25;5088205;28;20430;-63
2021/12/24 13:08:23;;;;;;;1.55;1.45;;;;;;;11.94;57.03;94344.84;5070117;28;20115;-64
2021/12/24 13:11:03;;;;;;;3.72;2.00;;;;;;;12.73;57.08;94422.75;5069669;28;20044;-62
2021/12/24 13:13:41;;;;;;;1.55;1.10;;;;;;;11.54;58.94;94341.97;5071546;28;20450;-64
2021/12/24 13:16:16;;;;;;;1.45;1.10;;;;;;;11.09;57.07;94205.06;5074741;28;20437;-63
2021/12/24 13:18:42;;;;;;;2.08;1.50;;;;;;;12.66;56.71;94428.66;5090908;28;20048;-63
2021/12/24 13:23:35;;;;;;;1.90;1.30;;;;;;;11.14;57.89;94218.16;5091221;28;20031;-64